sensor_id;sensor_type;location;lat;lon;timestamp;temperature;humidity
3194;DHT22;1608;50.860;13.466;2022-09-24T00:00:54;12.60;99.90
3194;DHT22;1608;50.860;13.466;2022-09-24T00:03:22;12.60;99.90
3194;DHT22;1608;50.860;13.466;2022-09-24T00:05:50;12.60;99.90
3194;DHT22;1608;50.860;13.466;2022-09-24T00:08:17;12.50;99.90
3194;DHT22;1608;50.860;13.466;2022-09-24T00:10:46;12.50;99.90
3194;DHT22;1608;50.860;13.466;2022-09-24T00:13:16;12.50;99.90
3194;DHT22;1608;50.860;13.466;2022-09-24T00:15:45;12.60;99.90
3194;DHT22;1608;50.860;13.466;2022-09-24T00:18:13;12.50;99.90
3194;DHT22;1608;50.860;13.466;2022-09-24T00:20:40;12.60;99.90
3194;DHT22;1608;50.860;13.466;2022-09-24T00:23:09;12.60;99.90
3194;DHT22;1608;50.860;13.466;2022-09-24T00:25:39;12.60;99.90
3194;DHT22;1608;50.860;13.466;2022-09-24T00:28:25;12.60;99.90
3194;DHT22;1608;50.860;13.466;2022-09-24T00:30:52;12.70;99.90
3194;DHT22;1608;50.860;13.466;2022-09-24T00:33:19;12.70;99.90
3194;DHT22;1608;50.860;13.466;2022-09-24T00:35:46;12.70;99.90
3194;DHT22;1608;50.860;13.466;2022-09-24T00:38:13;12.70;99.90
3194;DHT22;1608;50.860;13.466;2022-09-24T00:40:40;12.80;99.90
3194;DHT22;1608;50.860;13.466;2022-09-24T00:43:25;12.70;99.90
3194;DHT22;1608;50.860;13.466;2022-09-24T00:45:54;12.70;99.90
3194;DHT22;1608;50.860;13.466;2022-09-24T00:48:22;12.60;99.90
3194;DHT22;1608;50.860;13.466;2022-09-24T00:50:50;12.60;99.90
3194;DHT22;1608;50.860;13.466;2022-09-24T00:53:19;12.50;99.90
3194;DHT22;1608;50.860;13.466;2022-09-24T00:55:51;12.50;99.90
3194;DHT22;1608;50.860;13.466;2022-09-24T00:58:21;12.40;99.90
3194;DHT22;1608;50.860;13.466;2022-09-24T01:00:53;12.40;99.90
3194;DHT22;1608;50.860;13.466;2022-09-24T01:03:23;12.30;99.90
3194;DHT22;1608;50.860;13.466;2022-09-24T01:05:51;12.20;99.90
3194;DHT22;1608;50.860;13.466;2022-09-24T01:08:19;12.10;99.90
3194;DHT22;1608;50.860;13.466;2022-09-24T01:11:03;12.10;99.90
3194;DHT22;1608;50.860;13.466;2022-09-24T01:16:37;11.90;99.90
3194;DHT22;1608;50.860;13.466;2022-09-24T01:19:23;11.90;99.90
3194;DHT22;1608;50.860;13.466;2022-09-24T01:21:57;11.80;99.90
3194;DHT22;1608;50.860;13.466;2022-09-24T01:24:45;11.80;99.90
3194;DHT22;1608;50.860;13.466;2022-09-24T01:27:16;11.70;99.90
3194;DHT22;1608;50.860;13.466;2022-09-24T01:29:51;11.60;99.90
3194;DHT22;1608;50.860;13.466;2022-09-24T01:32:25;11.50;99.90
3194;DHT22;1608;50.860;13.466;2022-09-24T01:34:57;11.40;99.90
3194;DHT22;1608;50.860;13.466;2022-09-24T01:37:26;11.30;99.90
3194;DHT22;1608;50.860;13.466;2022-09-24T01:39:55;11.30;99.90
3194;DHT22;1608;50.860;13.466;2022-09-24T01:42:23;11.30;99.90
3194;DHT22;1608;50.860;13.466;2022-09-24T01:44:53;11.40;99.90
3194;DHT22;1608;50.860;13.466;2022-09-24T01:47:29;11.30;99.90
3194;DHT22;1608;50.860;13.466;2022-09-24T01:49:56;11.40;99.90
3194;DHT22;1608;50.860;13.466;2022-09-24T01:52:29;11.30;99.90
3194;DHT22;1608;50.860;13.466;2022-09-24T01:54:58;11.20;99.90
3194;DHT22;1608;50.860;13.466;2022-09-24T01:57:28;11.20;99.90
3194;DHT22;1608;50.860;13.466;2022-09-24T02:00:03;11.10;99.90
3194;DHT22;1608;50.860;13.466;2022-09-24T02:02:34;11.10;99.90
3194;DHT22;1608;50.860;13.466;2022-09-24T02:05:08;11.00;99.90
3194;DHT22;1608;50.860;13.466;2022-09-24T02:07:40;10.90;99.90
3194;DHT22;1608;50.860;13.466;2022-09-24T02:10:14;10.90;99.90
3194;DHT22;1608;50.860;13.466;2022-09-24T02:12:42;10.90;99.90
3194;DHT22;1608;50.860;13.466;2022-09-24T02:15:15;10.90;99.90
3194;DHT22;1608;50.860;13.466;2022-09-24T02:17:45;10.80;99.90
3194;DHT22;1608;50.860;13.466;2022-09-24T02:20:15;10.80;99.90
3194;DHT22;1608;50.860;13.466;2022-09-24T02:22:45;10.70;99.90
3194;DHT22;1608;50.860;13.466;2022-09-24T02:25:16;10.70;99.90
3194;DHT22;1608;50.860;13.466;2022-09-24T02:27:43;10.60;99.90
3194;DHT22;1608;50.860;13.466;2022-09-24T02:30:10;10.60;99.90
3194;DHT22;1608;50.860;13.466;2022-09-24T02:32:40;10.60;99.90
3194;DHT22;1608;50.860;13.466;2022-09-24T02:35:11;10.50;99.90
3194;DHT22;1608;50.860;13.466;2022-09-24T02:37:38;10.50;99.90
3194;DHT22;1608;50.860;13.466;2022-09-24T02:40:08;10.50;99.90
3194;DHT22;1608;50.860;13.466;2022-09-24T02:42:35;10.50;99.90
3194;DHT22;1608;50.860;13.466;2022-09-24T02:45:03;10.50;99.90
3194;DHT22;1608;50.860;13.466;2022-09-24T02:47:29;10.50;99.90
3194;DHT22;1608;50.860;13.466;2022-09-24T02:49:57;10.40;99.90
3194;DHT22;1608;50.860;13.466;2022-09-24T02:52:24;10.40;99.90
3194;DHT22;1608;50.860;13.466;2022-09-24T02:54:51;10.40;99.90
3194;DHT22;1608;50.860;13.466;2022-09-24T02:57:18;10.40;99.90
3194;DHT22;1608;50.860;13.466;2022-09-24T02:59:45;10.40;99.90
3194;DHT22;1608;50.860;13.466;2022-09-24T03:02:12;10.30;99.90
3194;DHT22;1608;50.860;13.466;2022-09-24T03:04:39;10.30;99.90
3194;DHT22;1608;50.860;13.466;2022-09-24T03:07:07;10.30;99.90
3194;DHT22;1608;50.860;13.466;2022-09-24T03:09:35;10.40;99.90
3194;DHT22;1608;50.860;13.466;2022-09-24T03:12:02;10.40;99.90
3194;DHT22;1608;50.860;13.466;2022-09-24T03:14:29;10.40;99.90
3194;DHT22;1608;50.860;13.466;2022-09-24T03:16:56;10.40;99.90
3194;DHT22;1608;50.860;13.466;2022-09-24T03:19:23;10.40;99.90
3194;DHT22;1608;50.860;13.466;2022-09-24T03:21:49;10.40;99.90
3194;DHT22;1608;50.860;13.466;2022-09-24T03:24:17;10.40;99.90
3194;DHT22;1608;50.860;13.466;2022-09-24T03:26:44;10.40;99.90
3194;DHT22;1608;50.860;13.466;2022-09-24T03:29:11;10.30;99.90
3194;DHT22;1608;50.860;13.466;2022-09-24T03:31:38;10.30;99.90
3194;DHT22;1608;50.860;13.466;2022-09-24T03:34:03;10.40;99.90
3194;DHT22;1608;50.860;13.466;2022-09-24T03:36:30;10.40;99.90
3194;DHT22;1608;50.860;13.466;2022-09-24T03:38:57;10.40;99.90
3194;DHT22;1608;50.860;13.466;2022-09-24T03:41:26;10.40;99.90
3194;DHT22;1608;50.860;13.466;2022-09-24T03:43:53;10.40;99.90
3194;DHT22;1608;50.860;13.466;2022-09-24T03:46:20;10.40;99.90
3194;DHT22;1608;50.860;13.466;2022-09-24T03:48:49;10.30;99.90
3194;DHT22;1608;50.860;13.466;2022-09-24T03:51:17;10.30;99.90
3194;DHT22;1608;50.860;13.466;2022-09-24T03:53:45;10.30;99.90
3194;DHT22;1608;50.860;13.466;2022-09-24T03:56:12;10.30;99.90
3194;DHT22;1608;50.860;13.466;2022-09-24T03:58:40;10.30;99.90
3194;DHT22;1608;50.860;13.466;2022-09-24T04:01:12;10.30;99.90
3194;DHT22;1608;50.860;13.466;2022-09-24T04:03:41;10.30;99.90
3194;DHT22;1608;50.860;13.466;2022-09-24T04:06:08;10.30;99.90
3194;DHT22;1608;50.860;13.466;2022-09-24T04:08:35;10.30;99.90
3194;DHT22;1608;50.860;13.466;2022-09-24T04:11:01;10.30;99.90
3194;DHT22;1608;50.860;13.466;2022-09-24T04:13:28;10.30;99.90
3194;DHT22;1608;50.860;13.466;2022-09-24T04:16:00;10.30;99.90
3194;DHT22;1608;50.860;13.466;2022-09-24T04:18:27;10.30;99.90
3194;DHT22;1608;50.860;13.466;2022-09-24T04:20:57;10.30;99.90
3194;DHT22;1608;50.860;13.466;2022-09-24T04:23:24;10.30;99.90
3194;DHT22;1608;50.860;13.466;2022-09-24T04:25:50;10.30;99.90
3194;DHT22;1608;50.860;13.466;2022-09-24T04:28:18;10.30;99.90
3194;DHT22;1608;50.860;13.466;2022-09-24T04:30:45;10.20;99.90
3194;DHT22;1608;50.860;13.466;2022-09-24T04:33:13;10.20;99.90
3194;DHT22;1608;50.860;13.466;2022-09-24T04:35:40;10.20;99.90
3194;DHT22;1608;50.860;13.466;2022-09-24T04:38:06;10.20;99.90
3194;DHT22;1608;50.860;13.466;2022-09-24T04:40:33;10.10;99.90
3194;DHT22;1608;50.860;13.466;2022-09-24T04:43:00;10.10;99.90
3194;DHT22;1608;50.860;13.466;2022-09-24T04:45:27;10.10;99.90
3194;DHT22;1608;50.860;13.466;2022-09-24T04:47:54;10.00;99.90
3194;DHT22;1608;50.860;13.466;2022-09-24T04:50:23;10.00;99.90
3194;DHT22;1608;50.860;13.466;2022-09-24T04:52:50;10.00;99.90
3194;DHT22;1608;50.860;13.466;2022-09-24T04:55:17;10.00;99.90
3194;DHT22;1608;50.860;13.466;2022-09-24T04:57:45;10.00;99.90
3194;DHT22;1608;50.860;13.466;2022-09-24T05:00:13;10.00;99.90
3194;DHT22;1608;50.860;13.466;2022-09-24T05:02:42;10.00;99.90
3194;DHT22;1608;50.860;13.466;2022-09-24T05:05:09;10.10;99.90
3194;DHT22;1608;50.860;13.466;2022-09-24T05:07:38;10.10;99.90
3194;DHT22;1608;50.860;13.466;2022-09-24T05:10:05;10.10;99.90
3194;DHT22;1608;50.860;13.466;2022-09-24T05:12:33;10.10;99.90
3194;DHT22;1608;50.860;13.466;2022-09-24T05:15:00;10.20;99.90
3194;DHT22;1608;50.860;13.466;2022-09-24T05:17:27;10.20;99.90
3194;DHT22;1608;50.860;13.466;2022-09-24T05:19:54;10.20;99.90
3194;DHT22;1608;50.860;13.466;2022-09-24T05:22:23;10.20;99.90
3194;DHT22;1608;50.860;13.466;2022-09-24T05:24:51;10.30;99.90
3194;DHT22;1608;50.860;13.466;2022-09-24T05:27:18;10.40;99.90
3194;DHT22;1608;50.860;13.466;2022-09-24T05:29:46;10.40;99.90
3194;DHT22;1608;50.860;13.466;2022-09-24T05:32:15;10.50;99.90
3194;DHT22;1608;50.860;13.466;2022-09-24T05:34:42;10.60;99.90
3194;DHT22;1608;50.860;13.466;2022-09-24T05:37:10;10.50;99.90
3194;DHT22;1608;50.860;13.466;2022-09-24T05:39:37;10.60;99.90
3194;DHT22;1608;50.860;13.466;2022-09-24T05:42:05;10.60;99.90
3194;DHT22;1608;50.860;13.466;2022-09-24T05:44:32;10.60;99.90
3194;DHT22;1608;50.860;13.466;2022-09-24T05:46:59;10.50;99.90
3194;DHT22;1608;50.860;13.466;2022-09-24T05:49:26;10.60;99.90
3194;DHT22;1608;50.860;13.466;2022-09-24T05:51:53;10.70;99.90
3194;DHT22;1608;50.860;13.466;2022-09-24T05:54:20;10.80;99.90
3194;DHT22;1608;50.860;13.466;2022-09-24T05:56:46;10.90;99.90
3194;DHT22;1608;50.860;13.466;2022-09-24T05:59:14;11.10;99.90
3194;DHT22;1608;50.860;13.466;2022-09-24T06:01:41;11.20;99.90
3194;DHT22;1608;50.860;13.466;2022-09-24T06:04:09;11.30;99.90
3194;DHT22;1608;50.860;13.466;2022-09-24T06:06:36;11.50;99.90
3194;DHT22;1608;50.860;13.466;2022-09-24T06:09:03;11.60;99.90
3194;DHT22;1608;50.860;13.466;2022-09-24T06:11:30;11.70;99.90
3194;DHT22;1608;50.860;13.466;2022-09-24T06:13:59;11.80;99.90
3194;DHT22;1608;50.860;13.466;2022-09-24T06:16:28;11.80;99.90
3194;DHT22;1608;50.860;13.466;2022-09-24T06:18:57;12.00;99.90
3194;DHT22;1608;50.860;13.466;2022-09-24T06:21:23;12.10;99.90
3194;DHT22;1608;50.860;13.466;2022-09-24T06:23:50;12.20;99.90
3194;DHT22;1608;50.860;13.466;2022-09-24T06:26:17;12.30;99.90
3194;DHT22;1608;50.860;13.466;2022-09-24T06:28:44;12.40;99.90
3194;DHT22;1608;50.860;13.466;2022-09-24T06:31:11;12.40;99.90
3194;DHT22;1608;50.860;13.466;2022-09-24T06:33:39;12.40;99.90
3194;DHT22;1608;50.860;13.466;2022-09-24T06:36:06;12.50;99.90
3194;DHT22;1608;50.860;13.466;2022-09-24T06:38:33;12.60;99.90
3194;DHT22;1608;50.860;13.466;2022-09-24T06:41:02;12.70;99.90
3194;DHT22;1608;50.860;13.466;2022-09-24T06:43:30;13.00;99.90
3194;DHT22;1608;50.860;13.466;2022-09-24T06:45:57;13.20;99.90
3194;DHT22;1608;50.860;13.466;2022-09-24T06:48:25;13.50;99.90
3194;DHT22;1608;50.860;13.466;2022-09-24T06:50:53;13.70;99.90
3194;DHT22;1608;50.860;13.466;2022-09-24T06:53:21;13.90;99.90
3194;DHT22;1608;50.860;13.466;2022-09-24T06:55:47;14.00;99.90
3194;DHT22;1608;50.860;13.466;2022-09-24T06:58:16;14.20;99.90
3194;DHT22;1608;50.860;13.466;2022-09-24T07:00:49;14.20;99.90
3194;DHT22;1608;50.860;13.466;2022-09-24T07:03:17;14.30;99.90
3194;DHT22;1608;50.860;13.466;2022-09-24T07:05:44;14.50;99.90
3194;DHT22;1608;50.860;13.466;2022-09-24T07:08:12;14.60;99.90
3194;DHT22;1608;50.860;13.466;2022-09-24T07:10:41;15.00;99.90
3194;DHT22;1608;50.860;13.466;2022-09-24T07:13:08;15.40;99.90
3194;DHT22;1608;50.860;13.466;2022-09-24T07:15:35;15.90;99.90
3194;DHT22;1608;50.860;13.466;2022-09-24T07:18:02;16.50;99.90
3194;DHT22;1608;50.860;13.466;2022-09-24T07:20:29;17.10;99.90
3194;DHT22;1608;50.860;13.466;2022-09-24T07:22:56;17.70;99.90
3194;DHT22;1608;50.860;13.466;2022-09-24T07:25:25;18.00;99.90
3194;DHT22;1608;50.860;13.466;2022-09-24T07:27:51;18.10;99.60
3194;DHT22;1608;50.860;13.466;2022-09-24T07:30:18;18.20;97.90
3194;DHT22;1608;50.860;13.466;2022-09-24T07:32:45;17.90;97.40
3194;DHT22;1608;50.860;13.466;2022-09-24T07:35:12;17.70;98.10
3194;DHT22;1608;50.860;13.466;2022-09-24T07:37:39;17.80;98.20
3194;DHT22;1608;50.860;13.466;2022-09-24T07:40:07;17.50;96.90
3194;DHT22;1608;50.860;13.466;2022-09-24T07:42:35;17.40;96.90
3194;DHT22;1608;50.860;13.466;2022-09-24T07:45:03;17.10;97.50
3194;DHT22;1608;50.860;13.466;2022-09-24T07:47:30;17.10;98.40
3194;DHT22;1608;50.860;13.466;2022-09-24T07:49:57;17.10;97.20
3194;DHT22;1608;50.860;13.466;2022-09-24T07:52:24;17.10;96.70
3194;DHT22;1608;50.860;13.466;2022-09-24T07:54:51;17.00;96.20
3194;DHT22;1608;50.860;13.466;2022-09-24T07:57:18;17.00;97.60
3194;DHT22;1608;50.860;13.466;2022-09-24T07:59:46;17.10;96.50
3194;DHT22;1608;50.860;13.466;2022-09-24T08:02:16;17.10;96.50
3194;DHT22;1608;50.860;13.466;2022-09-24T08:04:43;17.00;96.70
3194;DHT22;1608;50.860;13.466;2022-09-24T08:07:11;17.00;96.60
3194;DHT22;1608;50.860;13.466;2022-09-24T08:09:38;17.10;96.20
3194;DHT22;1608;50.860;13.466;2022-09-24T08:12:05;17.00;95.60
3194;DHT22;1608;50.860;13.466;2022-09-24T08:14:32;17.10;96.50
3194;DHT22;1608;50.860;13.466;2022-09-24T08:17:01;17.20;98.00
3194;DHT22;1608;50.860;13.466;2022-09-24T08:19:27;17.30;97.10
3194;DHT22;1608;50.860;13.466;2022-09-24T08:21:55;17.40;96.90
3194;DHT22;1608;50.860;13.466;2022-09-24T08:24:22;17.40;96.80
3194;DHT22;1608;50.860;13.466;2022-09-24T08:26:49;17.50;96.80
3194;DHT22;1608;50.860;13.466;2022-09-24T08:29:16;17.70;97.00
3194;DHT22;1608;50.860;13.466;2022-09-24T08:31:43;17.90;96.80
3194;DHT22;1608;50.860;13.466;2022-09-24T08:34:11;18.10;96.80
3194;DHT22;1608;50.860;13.466;2022-09-24T08:36:37;18.30;96.20
3194;DHT22;1608;50.860;13.466;2022-09-24T08:39:04;18.30;96.30
3194;DHT22;1608;50.860;13.466;2022-09-24T08:41:43;18.40;95.00
3194;DHT22;1608;50.860;13.466;2022-09-24T08:44:16;18.40;94.20
3194;DHT22;1608;50.860;13.466;2022-09-24T08:47:11;18.50;94.60
3194;DHT22;1608;50.860;13.466;2022-09-24T08:49:53;18.50;94.20
3194;DHT22;1608;50.860;13.466;2022-09-24T08:52:34;18.40;94.10
3194;DHT22;1608;50.860;13.466;2022-09-24T08:55:06;18.40;93.90
3194;DHT22;1608;50.860;13.466;2022-09-24T08:57:37;18.60;94.60
3194;DHT22;1608;50.860;13.466;2022-09-24T09:00:12;18.70;95.40
3194;DHT22;1608;50.860;13.466;2022-09-24T09:02:45;18.90;94.40
3194;DHT22;1608;50.860;13.466;2022-09-24T09:05:23;19.00;93.80
3194;DHT22;1608;50.860;13.466;2022-09-24T09:07:59;19.20;94.70
3194;DHT22;1608;50.860;13.466;2022-09-24T09:10:30;19.20;94.00
3194;DHT22;1608;50.860;13.466;2022-09-24T09:13:03;19.30;93.50
3194;DHT22;1608;50.860;13.466;2022-09-24T09:15:34;19.30;93.30
3194;DHT22;1608;50.860;13.466;2022-09-24T09:18:04;19.30;91.40
3194;DHT22;1608;50.860;13.466;2022-09-24T09:20:41;19.10;92.70
3194;DHT22;1608;50.860;13.466;2022-09-24T09:23:12;19.20;92.00
3194;DHT22;1608;50.860;13.466;2022-09-24T09:25:43;19.00;91.10
3194;DHT22;1608;50.860;13.466;2022-09-24T09:28:17;19.10;90.60
3194;DHT22;1608;50.860;13.466;2022-09-24T09:30:55;19.10;90.30
3194;DHT22;1608;50.860;13.466;2022-09-24T09:33:37;19.20;89.00
3194;DHT22;1608;50.860;13.466;2022-09-24T09:36:20;18.90;91.80
3194;DHT22;1608;50.860;13.466;2022-09-24T09:38:55;19.00;90.60
3194;DHT22;1608;50.860;13.466;2022-09-24T09:41:30;19.00;88.70
3194;DHT22;1608;50.860;13.466;2022-09-24T09:44:07;19.10;88.60
3194;DHT22;1608;50.860;13.466;2022-09-24T09:46:40;19.10;89.60
3194;DHT22;1608;50.860;13.466;2022-09-24T09:49:08;19.00;90.00
3194;DHT22;1608;50.860;13.466;2022-09-24T09:51:39;18.80;89.90
3194;DHT22;1608;50.860;13.466;2022-09-24T09:54:07;18.70;90.30
3194;DHT22;1608;50.860;13.466;2022-09-24T09:56:36;18.60;91.90
3194;DHT22;1608;50.860;13.466;2022-09-24T09:59:07;18.60;92.90
3194;DHT22;1608;50.860;13.466;2022-09-24T10:01:35;18.50;93.00
3194;DHT22;1608;50.860;13.466;2022-09-24T10:04:05;18.50;91.60
3194;DHT22;1608;50.860;13.466;2022-09-24T10:06:33;18.50;91.20
3194;DHT22;1608;50.860;13.466;2022-09-24T10:09:12;18.60;91.20
3194;DHT22;1608;50.860;13.466;2022-09-24T10:11:40;18.60;90.50
3194;DHT22;1608;50.860;13.466;2022-09-24T10:14:10;18.60;90.40
3194;DHT22;1608;50.860;13.466;2022-09-24T10:16:38;18.60;90.90
3194;DHT22;1608;50.860;13.466;2022-09-24T10:19:14;18.50;95.80
3194;DHT22;1608;50.860;13.466;2022-09-24T10:21:41;18.10;95.70
3194;DHT22;1608;50.860;13.466;2022-09-24T10:24:14;18.10;95.60
3194;DHT22;1608;50.860;13.466;2022-09-24T10:26:44;18.00;93.20
3194;DHT22;1608;50.860;13.466;2022-09-24T10:29:13;18.10;92.90
3194;DHT22;1608;50.860;13.466;2022-09-24T10:31:59;18.20;94.10
3194;DHT22;1608;50.860;13.466;2022-09-24T10:34:27;18.30;93.30
3194;DHT22;1608;50.860;13.466;2022-09-24T10:36:58;18.30;94.10
3194;DHT22;1608;50.860;13.466;2022-09-24T10:39:27;18.30;93.40
3194;DHT22;1608;50.860;13.466;2022-09-24T10:41:55;18.20;90.80
3194;DHT22;1608;50.860;13.466;2022-09-24T10:44:24;18.10;91.00
3194;DHT22;1608;50.860;13.466;2022-09-24T10:47:11;18.10;90.90
3194;DHT22;1608;50.860;13.466;2022-09-24T10:49:54;18.20;95.10
3194;DHT22;1608;50.860;13.466;2022-09-24T10:52:37;18.30;96.20
3194;DHT22;1608;50.860;13.466;2022-09-24T10:55:17;18.30;95.70
3194;DHT22;1608;50.860;13.466;2022-09-24T10:57:50;18.60;93.30
3194;DHT22;1608;50.860;13.466;2022-09-24T11:00:20;18.70;92.40
3194;DHT22;1608;50.860;13.466;2022-09-24T11:03:22;18.90;91.80
3194;DHT22;1608;50.860;13.466;2022-09-24T11:05:52;19.00;91.30
3194;DHT22;1608;50.860;13.466;2022-09-24T11:08:33;19.20;91.60
3194;DHT22;1608;50.860;13.466;2022-09-24T11:11:15;19.30;90.80
3194;DHT22;1608;50.860;13.466;2022-09-24T11:13:49;19.40;89.00
3194;DHT22;1608;50.860;13.466;2022-09-24T11:16:47;19.30;90.10
3194;DHT22;1608;50.860;13.466;2022-09-24T11:19:29;19.50;90.00
3194;DHT22;1608;50.860;13.466;2022-09-24T11:24:58;19.30;88.20
3194;DHT22;1608;50.860;13.466;2022-09-24T11:27:46;19.20;88.50
3194;DHT22;1608;50.860;13.466;2022-09-24T11:30:16;19.20;86.60
3194;DHT22;1608;50.860;13.466;2022-09-24T11:32:53;19.10;87.10
3194;DHT22;1608;50.860;13.466;2022-09-24T11:35:41;19.20;88.80
3194;DHT22;1608;50.860;13.466;2022-09-24T11:38:14;19.30;87.70
3194;DHT22;1608;50.860;13.466;2022-09-24T11:41:05;19.40;87.90
3194;DHT22;1608;50.860;13.466;2022-09-24T11:44:01;19.50;88.90
3194;DHT22;1608;50.860;13.466;2022-09-24T11:46:44;19.40;86.40
3194;DHT22;1608;50.860;13.466;2022-09-24T11:49:27;19.40;88.40
3194;DHT22;1608;50.860;13.466;2022-09-24T11:52:01;19.50;88.50
3194;DHT22;1608;50.860;13.466;2022-09-24T11:54:33;19.60;87.00
3194;DHT22;1608;50.860;13.466;2022-09-24T11:57:04;19.50;85.70
3194;DHT22;1608;50.860;13.466;2022-09-24T11:59:41;19.40;84.60
3194;DHT22;1608;50.860;13.466;2022-09-24T12:02:14;19.40;86.30
3194;DHT22;1608;50.860;13.466;2022-09-24T12:04:51;19.50;88.40
3194;DHT22;1608;50.860;13.466;2022-09-24T12:07:22;19.20;88.40
3194;DHT22;1608;50.860;13.466;2022-09-24T12:09:52;19.20;90.40
3194;DHT22;1608;50.860;13.466;2022-09-24T12:12:24;19.10;90.50
3194;DHT22;1608;50.860;13.466;2022-09-24T12:14:57;19.20;90.90
3194;DHT22;1608;50.860;13.466;2022-09-24T12:17:29;19.30;91.20
3194;DHT22;1608;50.860;13.466;2022-09-24T12:20:01;19.10;90.10
3194;DHT22;1608;50.860;13.466;2022-09-24T12:22:30;19.10;90.10
3194;DHT22;1608;50.860;13.466;2022-09-24T12:24:59;19.00;90.20
3194;DHT22;1608;50.860;13.466;2022-09-24T12:27:32;18.90;90.30
3194;DHT22;1608;50.860;13.466;2022-09-24T12:30:05;18.90;89.10
3194;DHT22;1608;50.860;13.466;2022-09-24T12:33:00;18.90;87.70
3194;DHT22;1608;50.860;13.466;2022-09-24T12:35:35;18.90;85.90
3194;DHT22;1608;50.860;13.466;2022-09-24T12:38:07;18.90;88.50
3194;DHT22;1608;50.860;13.466;2022-09-24T12:41:15;18.90;88.40
3194;DHT22;1608;50.860;13.466;2022-09-24T12:43:45;18.90;89.30
3194;DHT22;1608;50.860;13.466;2022-09-24T12:46:18;18.80;90.00
3194;DHT22;1608;50.860;13.466;2022-09-24T12:48:46;18.80;89.00
3194;DHT22;1608;50.860;13.466;2022-09-24T12:51:14;18.80;89.50
3194;DHT22;1608;50.860;13.466;2022-09-24T12:53:55;18.90;90.30
3194;DHT22;1608;50.860;13.466;2022-09-24T12:56:24;18.80;89.80
3194;DHT22;1608;50.860;13.466;2022-09-24T12:58:52;18.60;89.80
3194;DHT22;1608;50.860;13.466;2022-09-24T13:01:28;18.40;90.30
3194;DHT22;1608;50.860;13.466;2022-09-24T13:04:25;18.30;88.40
3194;DHT22;1608;50.860;13.466;2022-09-24T13:06:54;18.40;89.50
3194;DHT22;1608;50.860;13.466;2022-09-24T13:09:33;18.30;90.00
3194;DHT22;1608;50.860;13.466;2022-09-24T13:12:03;18.40;89.50
3194;DHT22;1608;50.860;13.466;2022-09-24T13:14:31;18.40;89.00
3194;DHT22;1608;50.860;13.466;2022-09-24T13:17:04;18.50;87.40
3194;DHT22;1608;50.860;13.466;2022-09-24T13:19:35;18.50;86.90
3194;DHT22;1608;50.860;13.466;2022-09-24T13:22:03;18.60;86.60
3194;DHT22;1608;50.860;13.466;2022-09-24T13:24:43;18.60;85.60
3194;DHT22;1608;50.860;13.466;2022-09-24T13:27:22;18.70;87.00
3194;DHT22;1608;50.860;13.466;2022-09-24T13:30:03;18.70;88.50
3194;DHT22;1608;50.860;13.466;2022-09-24T13:32:36;18.80;90.00
3194;DHT22;1608;50.860;13.466;2022-09-24T13:35:08;18.80;87.60
3194;DHT22;1608;50.860;13.466;2022-09-24T13:37:41;18.80;86.50
3194;DHT22;1608;50.860;13.466;2022-09-24T13:40:16;18.90;86.70
3194;DHT22;1608;50.860;13.466;2022-09-24T13:42:48;18.90;86.20
3194;DHT22;1608;50.860;13.466;2022-09-24T13:45:17;19.00;86.20
3194;DHT22;1608;50.860;13.466;2022-09-24T13:47:50;19.00;86.90
3194;DHT22;1608;50.860;13.466;2022-09-24T13:50:22;19.00;87.10
3194;DHT22;1608;50.860;13.466;2022-09-24T13:52:52;19.10;88.00
3194;DHT22;1608;50.860;13.466;2022-09-24T13:55:23;19.20;86.90
3194;DHT22;1608;50.860;13.466;2022-09-24T13:57:50;19.30;85.70
3194;DHT22;1608;50.860;13.466;2022-09-24T14:00:19;19.40;84.10
3194;DHT22;1608;50.860;13.466;2022-09-24T14:03:03;19.30;83.50
3194;DHT22;1608;50.860;13.466;2022-09-24T14:05:33;19.40;84.20
3194;DHT22;1608;50.860;13.466;2022-09-24T14:08:03;19.40;85.90
3194;DHT22;1608;50.860;13.466;2022-09-24T14:10:31;19.30;86.30
3194;DHT22;1608;50.860;13.466;2022-09-24T14:12:59;19.40;87.80
3194;DHT22;1608;50.860;13.466;2022-09-24T14:15:26;19.50;87.20
3194;DHT22;1608;50.860;13.466;2022-09-24T14:17:56;19.70;87.20
3194;DHT22;1608;50.860;13.466;2022-09-24T14:20:27;19.80;86.90
3194;DHT22;1608;50.860;13.466;2022-09-24T14:22:54;19.60;84.30
3194;DHT22;1608;50.860;13.466;2022-09-24T14:25:27;19.30;84.30
3194;DHT22;1608;50.860;13.466;2022-09-24T14:27:56;19.20;83.50
3194;DHT22;1608;50.860;13.466;2022-09-24T14:30:26;19.20;85.00
3194;DHT22;1608;50.860;13.466;2022-09-24T14:32:56;19.20;85.00
3194;DHT22;1608;50.860;13.466;2022-09-24T14:35:28;19.20;85.40
3194;DHT22;1608;50.860;13.466;2022-09-24T14:37:59;19.30;84.30
3194;DHT22;1608;50.860;13.466;2022-09-24T14:40:29;19.20;83.40
3194;DHT22;1608;50.860;13.466;2022-09-24T14:43:04;19.20;82.70
3194;DHT22;1608;50.860;13.466;2022-09-24T14:45:33;19.10;83.70
3194;DHT22;1608;50.860;13.466;2022-09-24T14:48:04;19.10;84.30
3194;DHT22;1608;50.860;13.466;2022-09-24T14:50:37;19.00;84.80
3194;DHT22;1608;50.860;13.466;2022-09-24T14:53:12;19.20;85.50
3194;DHT22;1608;50.860;13.466;2022-09-24T14:55:40;19.30;84.60
3194;DHT22;1608;50.860;13.466;2022-09-24T14:58:22;19.40;84.10
3194;DHT22;1608;50.860;13.466;2022-09-24T15:00:51;19.50;83.50
3194;DHT22;1608;50.860;13.466;2022-09-24T15:03:25;19.60;83.90
3194;DHT22;1608;50.860;13.466;2022-09-24T15:06:06;19.60;84.70
3194;DHT22;1608;50.860;13.466;2022-09-24T15:08:39;19.50;84.50
3194;DHT22;1608;50.860;13.466;2022-09-24T15:11:14;19.40;84.80
3194;DHT22;1608;50.860;13.466;2022-09-24T15:13:42;19.40;85.60
3194;DHT22;1608;50.860;13.466;2022-09-24T15:16:17;19.40;86.40
3194;DHT22;1608;50.860;13.466;2022-09-24T15:18:52;19.30;87.20
3194;DHT22;1608;50.860;13.466;2022-09-24T15:21:23;19.20;87.50
3194;DHT22;1608;50.860;13.466;2022-09-24T15:23:50;19.20;88.40
3194;DHT22;1608;50.860;13.466;2022-09-24T15:26:16;19.00;88.80
3194;DHT22;1608;50.860;13.466;2022-09-24T15:28:44;19.00;89.10
3194;DHT22;1608;50.860;13.466;2022-09-24T15:31:12;19.10;89.80
3194;DHT22;1608;50.860;13.466;2022-09-24T15:33:39;19.00;90.20
3194;DHT22;1608;50.860;13.466;2022-09-24T15:36:07;19.10;91.10
3194;DHT22;1608;50.860;13.466;2022-09-24T15:38:35;19.00;90.70
3194;DHT22;1608;50.860;13.466;2022-09-24T15:41:02;19.00;91.10
3194;DHT22;1608;50.860;13.466;2022-09-24T15:43:29;19.00;91.20
3194;DHT22;1608;50.860;13.466;2022-09-24T15:45:55;18.90;91.20
3194;DHT22;1608;50.860;13.466;2022-09-24T15:48:22;18.90;91.30
3194;DHT22;1608;50.860;13.466;2022-09-24T15:50:49;18.80;92.20
3194;DHT22;1608;50.860;13.466;2022-09-24T15:53:20;18.60;92.80
3194;DHT22;1608;50.860;13.466;2022-09-24T15:55:52;18.50;93.10
3194;DHT22;1608;50.860;13.466;2022-09-24T15:58:19;18.40;92.50
3194;DHT22;1608;50.860;13.466;2022-09-24T16:00:46;18.40;93.00
3194;DHT22;1608;50.860;13.466;2022-09-24T16:03:19;18.30;93.10
3194;DHT22;1608;50.860;13.466;2022-09-24T16:05:46;18.20;93.40
3194;DHT22;1608;50.860;13.466;2022-09-24T16:08:13;18.30;93.60
3194;DHT22;1608;50.860;13.466;2022-09-24T16:10:41;18.30;93.50
3194;DHT22;1608;50.860;13.466;2022-09-24T16:13:10;18.20;93.40